sensor_id;sensor_type;location;lat;lon;timestamp;temperature;humidity
11446;DHT22;5779;64.178;15.432;2024-03-06T00:00:56;-1.20;99.90
11446;DHT22;5779;64.178;15.432;2024-03-06T00:03:46;-1.30;99.90
11446;DHT22;5779;64.178;15.432;2024-03-06T00:06:33;-1.40;99.90
11446;DHT22;5779;64.178;15.432;2024-03-06T00:09:19;-1.30;99.90
11446;DHT22;5779;64.178;15.432;2024-03-06T00:12:06;-1.30;99.90
11446;DHT22;5779;64.178;15.432;2024-03-06T00:14:53;-1.20;99.90
11446;DHT22;5779;64.178;15.432;2024-03-06T00:17:40;-1.10;99.90
11446;DHT22;5779;64.178;15.432;2024-03-06T00:20:29;-1.10;99.90
11446;DHT22;5779;64.178;15.432;2024-03-06T00:23:15;-1.30;99.90
11446;DHT22;5779;64.178;15.432;2024-03-06T00:26:02;-1.30;99.90
11446;DHT22;5779;64.178;15.432;2024-03-06T00:28:49;-1.30;99.90
11446;DHT22;5779;64.178;15.432;2024-03-06T00:31:47;-1.50;99.90
11446;DHT22;5779;64.178;15.432;2024-03-06T00:34:34;-1.50;99.90
11446;DHT22;5779;64.178;15.432;2024-03-06T00:37:21;-1.60;99.90
11446;DHT22;5779;64.178;15.432;2024-03-06T00:40:09;-1.80;99.90
11446;DHT22;5779;64.178;15.432;2024-03-06T00:42:56;-1.80;99.90
11446;DHT22;5779;64.178;15.432;2024-03-06T00:45:45;-2.10;99.90
11446;DHT22;5779;64.178;15.432;2024-03-06T00:48:34;-2.10;99.90
11446;DHT22;5779;64.178;15.432;2024-03-06T00:51:21;-1.90;99.90
11446;DHT22;5779;64.178;15.432;2024-03-06T00:54:09;-1.70;99.90
11446;DHT22;5779;64.178;15.432;2024-03-06T00:57:01;-1.50;99.90
11446;DHT22;5779;64.178;15.432;2024-03-06T00:59:53;-1.40;99.90
11446;DHT22;5779;64.178;15.432;2024-03-06T01:02:43;-1.20;99.90
11446;DHT22;5779;64.178;15.432;2024-03-06T01:05:30;-1.00;99.90
11446;DHT22;5779;64.178;15.432;2024-03-06T01:08:16;-0.80;99.90
11446;DHT22;5779;64.178;15.432;2024-03-06T01:11:05;-1.00;99.90
11446;DHT22;5779;64.178;15.432;2024-03-06T01:13:52;-0.90;99.90
11446;DHT22;5779;64.178;15.432;2024-03-06T01:16:39;-0.80;99.90
11446;DHT22;5779;64.178;15.432;2024-03-06T01:19:25;-0.80;99.90
11446;DHT22;5779;64.178;15.432;2024-03-06T01:22:13;-1.00;99.90
11446;DHT22;5779;64.178;15.432;2024-03-06T01:24:59;-1.00;99.90
11446;DHT22;5779;64.178;15.432;2024-03-06T01:27:49;-0.90;99.90
11446;DHT22;5779;64.178;15.432;2024-03-06T01:30:38;-0.80;99.90
11446;DHT22;5779;64.178;15.432;2024-03-06T01:33:27;-0.60;99.90
11446;DHT22;5779;64.178;15.432;2024-03-06T01:36:19;-0.70;99.90
11446;DHT22;5779;64.178;15.432;2024-03-06T01:39:06;-0.60;99.90
11446;DHT22;5779;64.178;15.432;2024-03-06T01:41:53;-0.60;99.90
11446;DHT22;5779;64.178;15.432;2024-03-06T01:44:41;-0.60;99.90
11446;DHT22;5779;64.178;15.432;2024-03-06T01:47:28;-0.60;99.90
11446;DHT22;5779;64.178;15.432;2024-03-06T01:50:15;-0.50;99.90
11446;DHT22;5779;64.178;15.432;2024-03-06T01:53:04;-0.70;99.90
11446;DHT22;5779;64.178;15.432;2024-03-06T01:55:51;-1.00;99.90
11446;DHT22;5779;64.178;15.432;2024-03-06T01:58:39;-1.00;99.90
11446;DHT22;5779;64.178;15.432;2024-03-06T02:01:30;-1.10;99.90
11446;DHT22;5779;64.178;15.432;2024-03-06T02:04:17;-0.90;99.90
11446;DHT22;5779;64.178;15.432;2024-03-06T02:07:04;-0.90;99.90
11446;DHT22;5779;64.178;15.432;2024-03-06T02:09:55;-1.00;99.90
11446;DHT22;5779;64.178;15.432;2024-03-06T02:12:42;-1.50;99.90
11446;DHT22;5779;64.178;15.432;2024-03-06T02:15:30;-1.50;99.90
11446;DHT22;5779;64.178;15.432;2024-03-06T02:18:19;-1.50;99.90
11446;DHT22;5779;64.178;15.432;2024-03-06T02:21:09;-1.50;99.90
11446;DHT22;5779;64.178;15.432;2024-03-06T02:23:56;-1.50;99.90
11446;DHT22;5779;64.178;15.432;2024-03-06T02:26:49;-1.60;99.90
11446;DHT22;5779;64.178;15.432;2024-03-06T02:29:36;-1.50;99.90
11446;DHT22;5779;64.178;15.432;2024-03-06T02:32:26;-1.40;99.90
11446;DHT22;5779;64.178;15.432;2024-03-06T02:35:12;-1.30;99.90
11446;DHT22;5779;64.178;15.432;2024-03-06T02:38:01;-1.50;99.90
11446;DHT22;5779;64.178;15.432;2024-03-06T02:40:52;-1.60;99.90
11446;DHT22;5779;64.178;15.432;2024-03-06T02:43:39;-1.40;99.90
11446;DHT22;5779;64.178;15.432;2024-03-06T02:46:26;-1.40;99.90
11446;DHT22;5779;64.178;15.432;2024-03-06T02:49:13;-1.40;99.90
11446;DHT22;5779;64.178;15.432;2024-03-06T02:52:02;-1.30;99.90
11446;DHT22;5779;64.178;15.432;2024-03-06T02:54:50;-1.10;99.90
11446;DHT22;5779;64.178;15.432;2024-03-06T02:57:47;-1.10;99.90
11446;DHT22;5779;64.178;15.432;2024-03-06T03:00:33;-1.10;99.90
11446;DHT22;5779;64.178;15.432;2024-03-06T03:03:20;-1.00;99.90
11446;DHT22;5779;64.178;15.432;2024-03-06T03:06:10;-0.80;99.90
11446;DHT22;5779;64.178;15.432;2024-03-06T03:09:03;-1.00;99.90
11446;DHT22;5779;64.178;15.432;2024-03-06T03:11:51;-1.10;99.90
11446;DHT22;5779;64.178;15.432;2024-03-06T03:14:40;-1.00;99.90
11446;DHT22;5779;64.178;15.432;2024-03-06T03:17:28;-1.30;99.90
11446;DHT22;5779;64.178;15.432;2024-03-06T03:20:15;-1.30;99.90
11446;DHT22;5779;64.178;15.432;2024-03-06T03:23:02;-1.30;99.90
11446;DHT22;5779;64.178;15.432;2024-03-06T03:25:50;-1.10;99.90
11446;DHT22;5779;64.178;15.432;2024-03-06T03:28:39;-1.00;99.90
11446;DHT22;5779;64.178;15.432;2024-03-06T03:31:29;-0.90;99.90
11446;DHT22;5779;64.178;15.432;2024-03-06T03:34:16;-1.10;99.90
11446;DHT22;5779;64.178;15.432;2024-03-06T03:37:02;-1.60;99.90
11446;DHT22;5779;64.178;15.432;2024-03-06T03:39:49;-2.10;99.90
11446;DHT22;5779;64.178;15.432;2024-03-06T03:42:39;-2.10;99.90
11446;DHT22;5779;64.178;15.432;2024-03-06T03:45:27;-2.20;99.90
11446;DHT22;5779;64.178;15.432;2024-03-06T03:48:16;-2.30;99.90
11446;DHT22;5779;64.178;15.432;2024-03-06T03:51:03;-2.50;99.90
11446;DHT22;5779;64.178;15.432;2024-03-06T03:53:53;-2.30;99.90
11446;DHT22;5779;64.178;15.432;2024-03-06T03:56:40;-1.90;99.90
11446;DHT22;5779;64.178;15.432;2024-03-06T03:59:27;-1.90;99.90
11446;DHT22;5779;64.178;15.432;2024-03-06T04:02:18;-1.70;99.90
11446;DHT22;5779;64.178;15.432;2024-03-06T04:05:06;-1.60;99.90
11446;DHT22;5779;64.178;15.432;2024-03-06T04:07:57;-1.60;99.90
11446;DHT22;5779;64.178;15.432;2024-03-06T04:10:44;-1.70;99.90
11446;DHT22;5779;64.178;15.432;2024-03-06T04:13:36;-1.60;99.90
11446;DHT22;5779;64.178;15.432;2024-03-06T04:16:22;-1.70;99.90
11446;DHT22;5779;64.178;15.432;2024-03-06T04:19:10;-1.90;99.90
11446;DHT22;5779;64.178;15.432;2024-03-06T04:21:57;-1.90;99.90
11446;DHT22;5779;64.178;15.432;2024-03-06T04:24:44;-1.80;99.90
11446;DHT22;5779;64.178;15.432;2024-03-06T04:27:31;-1.70;99.90
11446;DHT22;5779;64.178;15.432;2024-03-06T04:30:18;-1.80;99.90
11446;DHT22;5779;64.178;15.432;2024-03-06T04:33:06;-2.10;99.90
11446;DHT22;5779;64.178;15.432;2024-03-06T04:35:54;-2.10;99.90
11446;DHT22;5779;64.178;15.432;2024-03-06T04:38:41;-2.00;99.90
11446;DHT22;5779;64.178;15.432;2024-03-06T04:41:30;-2.10;99.90
11446;DHT22;5779;64.178;15.432;2024-03-06T04:44:17;-2.40;99.90
11446;DHT22;5779;64.178;15.432;2024-03-06T04:47:04;-2.20;99.90
11446;DHT22;5779;64.178;15.432;2024-03-06T04:49:50;-2.00;99.90
11446;DHT22;5779;64.178;15.432;2024-03-06T04:52:39;-2.00;99.90
11446;DHT22;5779;64.178;15.432;2024-03-06T04:55:25;-1.80;99.90
11446;DHT22;5779;64.178;15.432;2024-03-06T04:58:12;-1.60;99.90
11446;DHT22;5779;64.178;15.432;2024-03-06T05:00:59;-1.70;99.90
11446;DHT22;5779;64.178;15.432;2024-03-06T05:03:46;-1.70;99.90
11446;DHT22;5779;64.178;15.432;2024-03-06T05:06:37;-1.50;99.90
11446;DHT22;5779;64.178;15.432;2024-03-06T05:09:25;-1.60;99.90
11446;DHT22;5779;64.178;15.432;2024-03-06T05:12:12;-1.70;99.90
11446;DHT22;5779;64.178;15.432;2024-03-06T05:14:59;-2.00;99.90
11446;DHT22;5779;64.178;15.432;2024-03-06T05:17:46;-2.20;99.90
11446;DHT22;5779;64.178;15.432;2024-03-06T05:20:33;-2.20;99.90
11446;DHT22;5779;64.178;15.432;2024-03-06T05:23:23;-2.30;99.90
11446;DHT22;5779;64.178;15.432;2024-03-06T05:26:11;-2.40;99.90
11446;DHT22;5779;64.178;15.432;2024-03-06T05:29:00;-2.20;99.90
11446;DHT22;5779;64.178;15.432;2024-03-06T05:31:46;-2.00;99.90
11446;DHT22;5779;64.178;15.432;2024-03-06T05:34:33;-1.80;99.90
11446;DHT22;5779;64.178;15.432;2024-03-06T05:37:20;-1.60;99.90
11446;DHT22;5779;64.178;15.432;2024-03-06T05:40:10;-1.60;99.90
11446;DHT22;5779;64.178;15.432;2024-03-06T05:42:59;-1.70;99.90
11446;DHT22;5779;64.178;15.432;2024-03-06T05:45:46;-1.60;99.90
11446;DHT22;5779;64.178;15.432;2024-03-06T05:48:33;-1.50;99.90
11446;DHT22;5779;64.178;15.432;2024-03-06T05:51:19;-1.50;99.90
11446;DHT22;5779;64.178;15.432;2024-03-06T05:54:06;-1.50;99.90
11446;DHT22;5779;64.178;15.432;2024-03-06T05:56:54;-1.70;99.90
11446;DHT22;5779;64.178;15.432;2024-03-06T05:59:42;-2.00;99.90
11446;DHT22;5779;64.178;15.432;2024-03-06T06:02:29;-2.20;99.90
11446;DHT22;5779;64.178;15.432;2024-03-06T06:05:16;-2.30;99.90
11446;DHT22;5779;64.178;15.432;2024-03-06T06:08:05;-2.10;99.90
11446;DHT22;5779;64.178;15.432;2024-03-06T06:10:52;-2.20;99.90
11446;DHT22;5779;64.178;15.432;2024-03-06T06:13:39;-2.50;99.90
11446;DHT22;5779;64.178;15.432;2024-03-06T06:16:35;-2.50;99.90
11446;DHT22;5779;64.178;15.432;2024-03-06T06:19:22;-2.30;99.90
11446;DHT22;5779;64.178;15.432;2024-03-06T06:22:09;-2.10;99.90
11446;DHT22;5779;64.178;15.432;2024-03-06T06:24:57;-2.00;99.90
11446;DHT22;5779;64.178;15.432;2024-03-06T06:27:44;-2.20;99.90
11446;DHT22;5779;64.178;15.432;2024-03-06T06:30:31;-2.20;99.90
11446;DHT22;5779;64.178;15.432;2024-03-06T06:33:22;-2.10;99.90
11446;DHT22;5779;64.178;15.432;2024-03-06T06:36:09;-2.20;99.90
11446;DHT22;5779;64.178;15.432;2024-03-06T06:38:56;-2.30;99.90
11446;DHT22;5779;64.178;15.432;2024-03-06T06:41:44;-2.60;99.90
11446;DHT22;5779;64.178;15.432;2024-03-06T06:44:31;-2.60;99.90
11446;DHT22;5779;64.178;15.432;2024-03-06T06:47:18;-2.70;99.90
11446;DHT22;5779;64.178;15.432;2024-03-06T06:50:07;-2.80;99.90
11446;DHT22;5779;64.178;15.432;2024-03-06T06:52:59;-2.60;99.90
11446;DHT22;5779;64.178;15.432;2024-03-06T06:55:45;-2.40;99.90
11446;DHT22;5779;64.178;15.432;2024-03-06T06:58:32;-2.40;99.90
11446;DHT22;5779;64.178;15.432;2024-03-06T07:01:24;-2.50;99.90
11446;DHT22;5779;64.178;15.432;2024-03-06T07:04:12;-2.40;99.90
11446;DHT22;5779;64.178;15.432;2024-03-06T07:07:02;-2.20;99.90
11446;DHT22;5779;64.178;15.432;2024-03-06T07:09:50;-2.10;99.90
11446;DHT22;5779;64.178;15.432;2024-03-06T07:12:36;-1.90;99.90
11446;DHT22;5779;64.178;15.432;2024-03-06T07:15:23;-1.90;99.90
11446;DHT22;5779;64.178;15.432;2024-03-06T07:18:10;-2.10;99.90
11446;DHT22;5779;64.178;15.432;2024-03-06T07:20:56;-2.30;99.90
11446;DHT22;5779;64.178;15.432;2024-03-06T07:23:45;-2.20;99.90
11446;DHT22;5779;64.178;15.432;2024-03-06T07:26:32;-2.00;99.90
11446;DHT22;5779;64.178;15.432;2024-03-06T07:29:23;-2.20;99.90
11446;DHT22;5779;64.178;15.432;2024-03-06T07:32:09;-2.70;99.90
11446;DHT22;5779;64.178;15.432;2024-03-06T07:34:56;-2.70;99.90
11446;DHT22;5779;64.178;15.432;2024-03-06T07:37:44;-2.50;99.90
11446;DHT22;5779;64.178;15.432;2024-03-06T07:40:33;-2.20;99.90
11446;DHT22;5779;64.178;15.432;2024-03-06T07:43:20;-1.90;99.90
11446;DHT22;5779;64.178;15.432;2024-03-06T07:46:06;-1.80;99.90
11446;DHT22;5779;64.178;15.432;2024-03-06T07:48:55;-1.50;99.90
11446;DHT22;5779;64.178;15.432;2024-03-06T07:51:42;-1.60;99.90
11446;DHT22;5779;64.178;15.432;2024-03-06T07:54:29;-1.60;99.90
11446;DHT22;5779;64.178;15.432;2024-03-06T07:57:19;-1.80;99.90
11446;DHT22;5779;64.178;15.432;2024-03-06T08:00:08;-2.30;99.90
11446;DHT22;5779;64.178;15.432;2024-03-06T08:03:04;-2.40;99.90
11446;DHT22;5779;64.178;15.432;2024-03-06T08:05:53;-2.60;99.90
11446;DHT22;5779;64.178;15.432;2024-03-06T08:08:40;-2.70;99.90
11446;DHT22;5779;64.178;15.432;2024-03-06T08:11:32;-2.50;99.90
11446;DHT22;5779;64.178;15.432;2024-03-06T08:14:20;-2.40;99.90
11446;DHT22;5779;64.178;15.432;2024-03-06T08:17:07;-2.60;99.90
11446;DHT22;5779;64.178;15.432;2024-03-06T08:19:53;-2.30;99.90
11446;DHT22;5779;64.178;15.432;2024-03-06T08:22:45;-1.90;99.90
11446;DHT22;5779;64.178;15.432;2024-03-06T08:25:31;-1.50;99.90
11446;DHT22;5779;64.178;15.432;2024-03-06T08:28:19;-1.30;99.90
11446;DHT22;5779;64.178;15.432;2024-03-06T08:31:07;-1.20;99.90
11446;DHT22;5779;64.178;15.432;2024-03-06T08:33:54;-1.20;99.90
11446;DHT22;5779;64.178;15.432;2024-03-06T08:36:41;-1.40;99.90
11446;DHT22;5779;64.178;15.432;2024-03-06T08:39:28;-1.50;99.90
11446;DHT22;5779;64.178;15.432;2024-03-06T08:42:15;-1.60;99.90
11446;DHT22;5779;64.178;15.432;2024-03-06T08:45:04;-1.50;99.90
11446;DHT22;5779;64.178;15.432;2024-03-06T08:47:54;-1.50;99.90
11446;DHT22;5779;64.178;15.432;2024-03-06T08:50:41;-1.60;99.90
11446;DHT22;5779;64.178;15.432;2024-03-06T08:53:27;-1.60;99.90
11446;DHT22;5779;64.178;15.432;2024-03-06T08:56:15;-1.30;99.90
11446;DHT22;5779;64.178;15.432;2024-03-06T08:59:01;-1.40;99.90
11446;DHT22;5779;64.178;15.432;2024-03-06T09:01:48;-1.20;99.90
11446;DHT22;5779;64.178;15.432;2024-03-06T09:04:38;-0.90;99.90
11446;DHT22;5779;64.178;15.432;2024-03-06T09:07:28;-0.70;99.90
11446;DHT22;5779;64.178;15.432;2024-03-06T09:10:15;-0.50;99.90
11446;DHT22;5779;64.178;15.432;2024-03-06T09:13:04;-0.30;99.90
11446;DHT22;5779;64.178;15.432;2024-03-06T09:15:51;-0.30;99.90
11446;DHT22;5779;64.178;15.432;2024-03-06T09:18:37;-0.10;99.90
11446;DHT22;5779;64.178;15.432;2024-03-06T09:21:26;0.00;99.90
11446;DHT22;5779;64.178;15.432;2024-03-06T09:24:14;-0.20;99.90
11446;DHT22;5779;64.178;15.432;2024-03-06T09:27:00;-0.10;99.90
11446;DHT22;5779;64.178;15.432;2024-03-06T09:29:47;-0.10;99.90
11446;DHT22;5779;64.178;15.432;2024-03-06T09:32:34;0.10;99.90
11446;DHT22;5779;64.178;15.432;2024-03-06T09:35:24;0.10;99.90
11446;DHT22;5779;64.178;15.432;2024-03-06T09:38:12;0.30;99.90
11446;DHT22;5779;64.178;15.432;2024-03-06T09:40:59;0.00;99.90
11446;DHT22;5779;64.178;15.432;2024-03-06T09:43:46;0.00;99.90
11446;DHT22;5779;64.178;15.432;2024-03-06T09:46:33;0.10;99.90
11446;DHT22;5779;64.178;15.432;2024-03-06T09:49:22;-0.10;99.90
11446;DHT22;5779;64.178;15.432;2024-03-06T09:52:10;-0.10;99.90
11446;DHT22;5779;64.178;15.432;2024-03-06T09:55:00;-0.10;99.90
11446;DHT22;5779;64.178;15.432;2024-03-06T09:57:50;0.30;99.90
11446;DHT22;5779;64.178;15.432;2024-03-06T10:00:39;0.60;99.90
11446;DHT22;5779;64.178;15.432;2024-03-06T10:03:27;0.70;99.90
11446;DHT22;5779;64.178;15.432;2024-03-06T10:06:17;0.40;99.90
11446;DHT22;5779;64.178;15.432;2024-03-06T10:09:04;0.40;99.90
11446;DHT22;5779;64.178;15.432;2024-03-06T10:11:57;0.10;99.90
11446;DHT22;5779;64.178;15.432;2024-03-06T10:14:49;0.20;99.90
11446;DHT22;5779;64.178;15.432;2024-03-06T10:17:36;0.00;99.90
11446;DHT22;5779;64.178;15.432;2024-03-06T10:20:24;0.10;99.90
11446;DHT22;5779;64.178;15.432;2024-03-06T10:23:13;0.30;99.90
11446;DHT22;5779;64.178;15.432;2024-03-06T10:25:59;0.60;99.90
11446;DHT22;5779;64.178;15.432;2024-03-06T10:28:48;0.60;99.90
11446;DHT22;5779;64.178;15.432;2024-03-06T10:31:37;0.60;99.90
11446;DHT22;5779;64.178;15.432;2024-03-06T10:34:26;0.80;99.90
11446;DHT22;5779;64.178;15.432;2024-03-06T10:37:14;0.40;99.90
11446;DHT22;5779;64.178;15.432;2024-03-06T10:40:03;0.20;99.90
11446;DHT22;5779;64.178;15.432;2024-03-06T10:42:53;0.30;99.90
11446;DHT22;5779;64.178;15.432;2024-03-06T10:45:47;0.20;99.90
11446;DHT22;5779;64.178;15.432;2024-03-06T10:48:35;0.50;99.90
11446;DHT22;5779;64.178;15.432;2024-03-06T10:51:25;0.60;99.90
11446;DHT22;5779;64.178;15.432;2024-03-06T10:54:16;0.50;99.90
11446;DHT22;5779;64.178;15.432;2024-03-06T10:57:03;0.60;99.90
11446;DHT22;5779;64.178;15.432;2024-03-06T10:59:52;0.70;99.90
11446;DHT22;5779;64.178;15.432;2024-03-06T11:02:41;0.70;99.90
11446;DHT22;5779;64.178;15.432;2024-03-06T11:05:28;0.50;99.90
11446;DHT22;5779;64.178;15.432;2024-03-06T11:08:15;0.50;99.90
11446;DHT22;5779;64.178;15.432;2024-03-06T11:11:20;0.10;99.90
11446;DHT22;5779;64.178;15.432;2024-03-06T11:14:09;0.00;99.90
11446;DHT22;5779;64.178;15.432;2024-03-06T11:17:02;-0.10;99.90
11446;DHT22;5779;64.178;15.432;2024-03-06T11:20:12;-0.10;99.90
11446;DHT22;5779;64.178;15.432;2024-03-06T11:23:04;-0.10;99.90
11446;DHT22;5779;64.178;15.432;2024-03-06T11:26:03;-0.10;99.90
11446;DHT22;5779;64.178;15.432;2024-03-06T11:28:51;0.10;99.90
11446;DHT22;5779;64.178;15.432;2024-03-06T11:31:38;0.20;99.90
11446;DHT22;5779;64.178;15.432;2024-03-06T11:34:28;-0.10;99.90
11446;DHT22;5779;64.178;15.432;2024-03-06T11:37:20;-0.40;99.90
11446;DHT22;5779;64.178;15.432;2024-03-06T11:40:11;-0.80;99.90
11446;DHT22;5779;64.178;15.432;2024-03-06T11:43:22;-0.60;99.90
11446;DHT22;5779;64.178;15.432;2024-03-06T11:46:10;-0.40;99.90
11446;DHT22;5779;64.178;15.432;2024-03-06T11:48:57;-0.50;99.90
11446;DHT22;5779;64.178;15.432;2024-03-06T11:51:44;-0.50;99.90
11446;DHT22;5779;64.178;15.432;2024-03-06T11:54:37;-0.40;99.90
11446;DHT22;5779;64.178;15.432;2024-03-06T11:57:24;-0.70;99.90
11446;DHT22;5779;64.178;15.432;2024-03-06T12:00:14;-0.20;99.90
11446;DHT22;5779;64.178;15.432;2024-03-06T12:03:01;-0.10;99.90
11446;DHT22;5779;64.178;15.432;2024-03-06T12:05:50;0.20;99.90
11446;DHT22;5779;64.178;15.432;2024-03-06T12:08:39;0.30;99.90
11446;DHT22;5779;64.178;15.432;2024-03-06T12:11:29;0.10;99.90
11446;DHT22;5779;64.178;15.432;2024-03-06T12:14:18;0.00;99.90
11446;DHT22;5779;64.178;15.432;2024-03-06T12:17:14;-0.20;99.90
11446;DHT22;5779;64.178;15.432;2024-03-06T12:20:01;-0.20;99.90
11446;DHT22;5779;64.178;15.432;2024-03-06T12:22:51;0.20;99.90
11446;DHT22;5779;64.178;15.432;2024-03-06T12:25:38;0.40;99.90
11446;DHT22;5779;64.178;15.432;2024-03-06T12:28:27;0.30;99.90
11446;DHT22;5779;64.178;15.432;2024-03-06T12:31:14;0.40;99.90
11446;DHT22;5779;64.178;15.432;2024-03-06T12:34:01;0.30;99.90
11446;DHT22;5779;64.178;15.432;2024-03-06T12:36:49;0.20;99.90
11446;DHT22;5779;64.178;15.432;2024-03-06T12:39:36;0.10;99.90
11446;DHT22;5779;64.178;15.432;2024-03-06T12:42:23;0.30;99.90
11446;DHT22;5779;64.178;15.432;2024-03-06T12:45:12;0.40;99.90
11446;DHT22;5779;64.178;15.432;2024-03-06T12:48:00;0.00;99.90
11446;DHT22;5779;64.178;15.432;2024-03-06T12:50:47;-0.20;99.90
11446;DHT22;5779;64.178;15.432;2024-03-06T12:53:36;0.00;99.90
11446;DHT22;5779;64.178;15.432;2024-03-06T12:56:29;0.50;99.90
11446;DHT22;5779;64.178;15.432;2024-03-06T12:59:22;0.90;99.90
11446;DHT22;5779;64.178;15.432;2024-03-06T13:02:10;1.00;99.90
11446;DHT22;5779;64.178;15.432;2024-03-06T13:05:00;1.00;99.90
11446;DHT22;5779;64.178;15.432;2024-03-06T13:07:47;1.50;99.90
11446;DHT22;5779;64.178;15.432;2024-03-06T13:10:34;2.10;99.90
11446;DHT22;5779;64.178;15.432;2024-03-06T13:13:20;2.60;99.90
11446;DHT22;5779;64.178;15.432;2024-03-06T13:16:09;3.10;99.90
11446;DHT22;5779;64.178;15.432;2024-03-06T13:18:58;3.30;99.90
11446;DHT22;5779;64.178;15.432;2024-03-06T13:21:47;3.40;99.90
11446;DHT22;5779;64.178;15.432;2024-03-06T13:24:35;3.80;99.90
11446;DHT22;5779;64.178;15.432;2024-03-06T13:27:29;3.60;99.90
11446;DHT22;5779;64.178;15.432;2024-03-06T13:30:18;2.50;99.90
11446;DHT22;5779;64.178;15.432;2024-03-06T13:33:08;2.10;99.90
11446;DHT22;5779;64.178;15.432;2024-03-06T13:35:56;2.00;99.90
11446;DHT22;5779;64.178;15.432;2024-03-06T13:38:43;1.80;99.90
11446;DHT22;5779;64.178;15.432;2024-03-06T13:41:29;2.20;99.90
11446;DHT22;5779;64.178;15.432;2024-03-06T13:44:16;2.70;99.90
11446;DHT22;5779;64.178;15.432;2024-03-06T13:47:03;3.10;99.90
11446;DHT22;5779;64.178;15.432;2024-03-06T13:49:50;3.00;99.90
11446;DHT22;5779;64.178;15.432;2024-03-06T13:52:38;3.00;99.90
11446;DHT22;5779;64.178;15.432;2024-03-06T13:55:25;3.00;99.90
11446;DHT22;5779;64.178;15.432;2024-03-06T13:58:16;3.20;99.90
11446;DHT22;5779;64.178;15.432;2024-03-06T14:01:03;3.20;99.90
11446;DHT22;5779;64.178;15.432;2024-03-06T14:03:50;3.40;99.90
11446;DHT22;5779;64.178;15.432;2024-03-06T14:06:37;3.50;99.90
11446;DHT22;5779;64.178;15.432;2024-03-06T14:09:26;3.70;99.90
11446;DHT22;5779;64.178;15.432;2024-03-06T14:12:13;3.90;99.90
11446;DHT22;5779;64.178;15.432;2024-03-06T14:15:00;4.00;99.90
11446;DHT22;5779;64.178;15.432;2024-03-06T14:17:47;4.20;99.90
11446;DHT22;5779;64.178;15.432;2024-03-06T14:20:36;4.20;99.90
11446;DHT22;5779;64.178;15.432;2024-03-06T14:23:29;4.20;99.90
11446;DHT22;5779;64.178;15.432;2024-03-06T14:26:20;4.10;99.90
11446;DHT22;5779;64.178;15.432;2024-03-06T14:29:08;4.10;99.90
11446;DHT22;5779;64.178;15.432;2024-03-06T14:31:54;4.10;99.90
11446;DHT22;5779;64.178;15.432;2024-03-06T14:34:44;3.90;99.90
11446;DHT22;5779;64.178;15.432;2024-03-06T14:37:33;3.80;99.90
11446;DHT22;5779;64.178;15.432;2024-03-06T14:40:20;3.90;99.90
11446;DHT22;5779;64.178;15.432;2024-03-06T14:43:08;3.70;99.90
11446;DHT22;5779;64.178;15.432;2024-03-06T14:45:55;3.70;99.90
11446;DHT22;5779;64.178;15.432;2024-03-06T14:48:41;3.90;99.90
11446;DHT22;5779;64.178;15.432;2024-03-06T14:51:29;4.00;99.90
11446;DHT22;5779;64.178;15.432;2024-03-06T14:54:16;4.10;99.90
11446;DHT22;5779;64.178;15.432;2024-03-06T14:57:03;4.30;99.90
11446;DHT22;5779;64.178;15.432;2024-03-06T14:59:52;4.40;99.90
11446;DHT22;5779;64.178;15.432;2024-03-06T15:02:40;4.50;99.90
11446;DHT22;5779;64.178;15.432;2024-03-06T15:05:27;4.20;99.90
11446;DHT22;5779;64.178;15.432;2024-03-06T15:08:14;4.20;99.90
11446;DHT22;5779;64.178;15.432;2024-03-06T15:11:01;4.30;99.90
11446;DHT22;5779;64.178;15.432;2024-03-06T15:13:48;4.50;99.90
11446;DHT22;5779;64.178;15.432;2024-03-06T15:16:38;4.70;99.90
11446;DHT22;5779;64.178;15.432;2024-03-06T15:19:25;4.70;99.90
11446;DHT22;5779;64.178;15.432;2024-03-06T15:22:12;4.80;99.90
11446;DHT22;5779;64.178;15.432;2024-03-06T15:24:59;5.00;99.90
11446;DHT22;5779;64.178;15.432;2024-03-06T15:27:46;4.80;99.90
11446;DHT22;5779;64.178;15.432;2024-03-06T15:30:35;5.00;99.90
11446;DHT22;5779;64.178;15.432;2024-03-06T15:33:24;5.10;99.90
11446;DHT22;5779;64.178;15.432;2024-03-06T15:36:11;4.70;99.90
11446;DHT22;5779;64.178;15.432;2024-03-06T15:38:57;4.10;99.90
11446;DHT22;5779;64.178;15.432;2024-03-06T15:41:44;4.00;99.90
11446;DHT22;5779;64.178;15.432;2024-03-06T15:44:31;3.60;99.90
11446;DHT22;5779;64.178;15.432;2024-03-06T15:47:19;3.10;99.90
11446;DHT22;5779;64.178;15.432;2024-03-06T15:50:10;2.80;99.90
11446;DHT22;5779;64.178;15.432;2024-03-06T15:52:57;2.70;99.90
11446;DHT22;5779;64.178;15.432;2024-03-06T15:55:44;2.50;99.90
11446;DHT22;5779;64.178;15.432;2024-03-06T15:58:31;2.40;99.90
11446;DHT22;5779;64.178;15.432;2024-03-06T16:01:17;2.20;99.90
11446;DHT22;5779;64.178;15.432;2024-03-06T16:04:04;2.00;99.90
11446;DHT22;5779;64.178;15.432;2024-03-06T16:06:53;1.70;99.90
11446;DHT22;5779;64.178;15.432;2024-03-06T16:09:41;1.20;99.90
11446;DHT22;5779;64.178;15.432;2024-03-06T16:12:30;1.10;99.90
11446;DHT22;5779;64.178;15.432;2024-03-06T16:15:17;0.60;99.90
11446;DHT22;5779;64.178;15.432;2024-03-06T16:18:04;0.60;99.90
11446;DHT22;5779;64.178;15.432;2024-03-06T16:20:52;0.50;99.90
11446;DHT22;5779;64.178;15.432;2024-03-06T16:23:43;0.50;99.90
11446;DHT22;5779;64.178;15.432;2024-03-06T16:26:31;0.50;99.90
11446;DHT22;5779;64.178;15.432;2024-03-06T16:29:23;0.60;99.90
11446;DHT22;5779;64.178;15.432;2024-03-06T16:32:10;0.20;99.90
11446;DHT22;5779;64.178;15.432;2024-03-06T16:34:57;-0.50;99.90
11446;DHT22;5779;64.178;15.432;2024-03-06T16:37:45;-0.80;99.90
11446;DHT22;5779;64.178;15.432;2024-03-06T16:40:35;-0.90;99.90
11446;DHT22;5779;64.178;15.432;2024-03-06T16:43:23;-1.20;99.90
11446;DHT22;5779;64.178;15.432;2024-03-06T16:46:10;-1.20;99.90
11446;DHT22;5779;64.178;15.432;2024-03-06T16:48:59;-1.50;99.90
11446;DHT22;5779;64.178;15.432;2024-03-06T16:51:46;-2.00;99.90
11446;DHT22;5779;64.178;15.432;2024-03-06T16:54:33;-2.20;99.90
11446;DHT22;5779;64.178;15.432;2024-03-06T16:57:22;-2.70;99.90
11446;DHT22;5779;64.178;15.432;2024-03-06T17:00:09;-2.90;99.90
11446;DHT22;5779;64.178;15.432;2024-03-06T17:03:00;-2.90;99.90
11446;DHT22;5779;64.178;15.432;2024-03-06T17:05:47;-2.90;99.90
11446;DHT22;5779;64.178;15.432;2024-03-06T17:08:36;-2.80;99.90
11446;DHT22;5779;64.178;15.432;2024-03-06T17:11:26;-2.70;99.90
11446;DHT22;5779;64.178;15.432;2024-03-06T17:14:15;-2.70;99.90
11446;DHT22;5779;64.178;15.432;2024-03-06T17:17:05;-2.40;99.90
11446;DHT22;5779;64.178;15.432;2024-03-06T17:19:52;-2.20;99.90
11446;DHT22;5779;64.178;15.432;2024-03-06T17:22:39;-2.10;99.90
11446;DHT22;5779;64.178;15.432;2024-03-06T17:25:26;-1.90;99.90
11446;DHT22;5779;64.178;15.432;2024-03-06T17:28:13;-2.00;99.90
11446;DHT22;5779;64.178;15.432;2024-03-06T17:31:04;-2.10;99.90
11446;DHT22;5779;64.178;15.432;2024-03-06T17:33:51;-2.40;99.90
11446;DHT22;5779;64.178;15.432;2024-03-06T17:36:38;-2.80;99.90
11446;DHT22;5779;64.178;15.432;2024-03-06T17:39:25;-3.20;99.90
11446;DHT22;5779;64.178;15.432;2024-03-06T17:42:15;-3.20;99.90
11446;DHT22;5779;64.178;15.432;2024-03-06T17:45:02;-3.00;99.90
11446;DHT22;5779;64.178;15.432;2024-03-06T17:47:52;-3.20;99.90